createdAt,value
2024-01-10T00:00:42.093Z,0
2024-01-10T00:01:58.237Z,0
2024-01-10T00:03:14.082Z,0
2024-01-10T00:04:30.153Z,0
2024-01-10T00:05:46.083Z,0
2024-01-10T00:07:02.119Z,0
2024-01-10T00:08:18.135Z,0.25
2024-01-10T00:09:34.723Z,0.27
2024-01-10T00:10:51.124Z,0.35
2024-01-10T00:12:07.170Z,0.55
2024-01-10T00:13:23.036Z,0.47
2024-01-10T00:14:39.271Z,0.3
2024-01-10T00:15:55.084Z,0.29
2024-01-10T00:17:11.084Z,0
2024-01-10T00:18:27.236Z,0
2024-01-10T00:19:43.178Z,0.09
2024-01-10T00:20:59.142Z,0
2024-01-10T00:22:15.107Z,0
2024-01-10T00:23:31.098Z,0
2024-01-10T00:24:47.137Z,0
2024-01-10T00:26:03.221Z,0
2024-01-10T00:27:19.158Z,0
2024-01-10T00:28:35.149Z,0
2024-01-10T00:29:51.128Z,0
2024-01-10T00:31:07.138Z,0
2024-01-10T00:32:23.183Z,0
2024-01-10T00:33:39.233Z,0
2024-01-10T00:34:55.239Z,0
2024-01-10T00:36:11.138Z,0
2024-01-10T00:37:27.117Z,0
2024-01-10T00:38:43.136Z,0
2024-01-10T00:39:59.154Z,0.2
2024-01-10T00:41:15.221Z,0.46
2024-01-10T00:42:31.098Z,0.36
2024-01-10T00:43:47.122Z,0.33
2024-01-10T00:45:03.219Z,0.26
2024-01-10T00:46:19.107Z,0
2024-01-10T00:47:35.138Z,0
2024-01-10T00:48:51.231Z,0
2024-01-10T00:50:07.408Z,0
2024-01-10T00:51:23.122Z,0.24
2024-01-10T00:52:39.164Z,0
2024-01-10T00:53:55.216Z,0
2024-01-10T00:55:11.476Z,0
2024-01-10T00:56:28.229Z,0
2024-01-10T00:57:44.114Z,0
2024-01-10T00:59:00.230Z,0
2024-01-10T01:00:16.122Z,0
2024-01-10T01:01:32.167Z,0
2024-01-10T01:02:48.196Z,0
2024-01-10T01:04:05.311Z,0
2024-01-10T01:05:21.242Z,0.19
2024-01-10T01:06:37.176Z,0.31
2024-01-10T01:07:53.169Z,0.52
2024-01-10T01:09:09.204Z,0.53
2024-01-10T01:10:25.114Z,0.61
2024-01-10T01:11:41.142Z,0.44
2024-01-10T01:12:57.213Z,0
2024-01-10T01:14:13.739Z,0.3
2024-01-10T01:15:30.175Z,0.37
2024-01-10T01:16:46.182Z,0.08
2024-01-10T01:18:02.239Z,0
2024-01-10T01:19:18.215Z,0
2024-01-10T01:20:34.159Z,0
2024-01-10T01:21:50.133Z,0
2024-01-10T01:23:06.257Z,0
2024-01-10T01:24:22.172Z,0
2024-01-10T01:25:39.187Z,0
2024-01-10T01:26:55.428Z,0
2024-01-10T01:28:12.154Z,0
2024-01-10T01:29:28.183Z,0
2024-01-10T01:30:44.498Z,0.2
2024-01-10T01:32:01.171Z,0.34
2024-01-10T01:33:17.326Z,0.2
2024-01-10T01:34:33.255Z,0.19
2024-01-10T01:35:49.165Z,0.35
2024-01-10T01:37:05.242Z,0.33
2024-01-10T01:38:21.179Z,0.39
2024-01-10T01:39:37.185Z,0.31
2024-01-10T01:40:53.212Z,0.32
2024-01-10T01:42:09.267Z,0.08
2024-01-10T01:43:25.214Z,0
2024-01-10T01:44:41.189Z,0.35
2024-01-10T01:45:57.270Z,0.1
2024-01-10T01:47:13.328Z,0.21
2024-01-10T01:48:29.396Z,0.23
2024-01-10T01:49:45.374Z,0.26
2024-01-10T01:51:01.223Z,0
2024-01-10T01:52:17.255Z,0
2024-01-10T01:53:34.059Z,0.4
2024-01-10T01:54:50.361Z,0.3
2024-01-10T01:56:07.334Z,0.26
2024-01-10T01:57:23.285Z,0.3
2024-01-10T01:58:39.331Z,0.28
2024-01-10T01:59:55.377Z,0.52
2024-01-10T02:01:11.334Z,0.27
2024-01-10T02:02:27.478Z,0.47
2024-01-10T02:03:43.369Z,0.66
2024-01-10T02:04:59.489Z,0.68
2024-01-10T02:06:16.419Z,0.57
2024-01-10T02:07:33.330Z,0.54
2024-01-10T02:08:49.317Z,0.68
2024-01-10T02:10:05.794Z,0.65
2024-01-10T02:11:22.489Z,0.77
2024-01-10T02:12:39.325Z,0.35
2024-01-10T02:13:55.471Z,0.47
2024-01-10T02:15:11.431Z,0.38
2024-01-10T02:16:28.352Z,0.1
2024-01-10T02:17:44.477Z,0.25
2024-01-10T02:19:01.359Z,0.36
2024-01-10T02:20:18.601Z,0.24
2024-01-10T02:21:34.438Z,0.74
2024-01-10T02:22:51.430Z,0.5
2024-01-10T02:24:07.363Z,0.53
2024-01-10T02:25:24.334Z,0.35
2024-01-10T02:26:40.432Z,0.35
2024-01-10T02:27:57.324Z,0.62
2024-01-10T02:29:13.382Z,0.44
2024-01-10T02:30:29.397Z,0.7
2024-01-10T02:31:45.482Z,0.43
2024-01-10T02:33:01.674Z,0.79
2024-01-10T02:34:17.465Z,0.84
2024-01-10T02:35:33.364Z,0.56
2024-01-10T02:36:49.383Z,0.72
2024-01-10T02:38:05.420Z,0.73
2024-01-10T02:39:21.463Z,1
2024-01-10T02:40:37.385Z,0.94
2024-01-10T02:41:53.381Z,0.59
2024-01-10T02:43:09.469Z,0.86
2024-01-10T02:44:25.443Z,0.85
2024-01-10T02:45:41.443Z,1
2024-01-10T02:46:57.480Z,0.84
2024-01-10T02:48:13.447Z,0.81
2024-01-10T02:49:30.458Z,0.41
2024-01-10T02:50:47.760Z,1.2
2024-01-10T02:52:04.953Z,1.18
2024-01-10T02:53:21.495Z,1.14
2024-01-10T02:54:38.495Z,0.94
2024-01-10T02:55:54.456Z,1.01
2024-01-10T02:57:11.445Z,0.81
2024-01-10T02:58:28.395Z,0.82
2024-01-10T02:59:45.473Z,0.75
2024-01-10T03:01:02.432Z,1.09
2024-01-10T03:02:18.559Z,0.64
2024-01-10T03:03:34.389Z,0.87
2024-01-10T03:04:50.469Z,0.87
2024-01-10T03:06:07.824Z,0.7
2024-01-10T03:07:24.409Z,0.49
2024-01-10T03:08:40.417Z,0.56
2024-01-10T03:09:57.421Z,0.67
2024-01-10T03:11:14.444Z,0.8
2024-01-10T03:12:31.468Z,0.69
2024-01-10T03:13:48.459Z,0.83
2024-01-10T03:15:05.390Z,0.68
2024-01-10T03:16:21.405Z,0.55
2024-01-10T03:17:37.638Z,0.46
2024-01-10T03:18:54.764Z,0.5
2024-01-10T03:20:11.331Z,0.3
2024-01-10T03:21:27.363Z,0.08
2024-01-10T03:22:43.364Z,0.38
2024-01-10T03:23:59.368Z,0.67
2024-01-10T03:25:15.349Z,0.73
2024-01-10T03:26:31.901Z,0.66
2024-01-10T03:27:48.803Z,0.78
2024-01-10T03:29:05.272Z,0.77
2024-01-10T03:30:21.364Z,0.9
2024-01-10T03:31:37.322Z,0.54
2024-01-10T03:32:53.537Z,0.61
2024-01-10T03:34:09.468Z,0.48
2024-01-10T03:35:25.433Z,0.63
2024-01-10T03:36:41.340Z,0.98
2024-01-10T03:37:57.343Z,0.77
2024-01-10T03:39:13.292Z,0.57
2024-01-10T03:40:29.305Z,0.27
2024-01-10T03:41:45.307Z,0.4
2024-01-10T03:43:01.359Z,0.35
2024-01-10T03:44:17.432Z,0.56
2024-01-10T03:45:33.393Z,0.45
2024-01-10T03:46:49.330Z,0.5
2024-01-10T03:48:05.373Z,0.63
2024-01-10T03:49:21.613Z,0.92
2024-01-10T03:50:37.368Z,0.86
2024-01-10T03:51:53.345Z,0.9
2024-01-10T03:53:09.408Z,0.52
2024-01-10T03:54:25.327Z,0.91
2024-01-10T03:55:41.444Z,0.74
2024-01-10T03:56:57.297Z,0.64
2024-01-10T03:58:13.393Z,1.17
2024-01-10T03:59:29.322Z,0.73
2024-01-10T04:00:45.364Z,0.63
2024-01-10T04:02:01.453Z,0.88
2024-01-10T04:03:17.537Z,0.66
2024-01-10T04:04:33.363Z,0.8
2024-01-10T04:05:49.422Z,0.48
2024-01-10T04:07:05.316Z,1.03
2024-01-10T04:08:21.359Z,0.7
2024-01-10T04:09:37.337Z,0.58
2024-01-10T04:10:53.420Z,0.32
2024-01-10T04:12:09.348Z,0.51
2024-01-10T04:13:25.346Z,0.16
2024-01-10T04:14:41.391Z,0.27
2024-01-10T04:15:57.443Z,0.15
2024-01-10T04:17:13.416Z,0.41
2024-01-10T04:18:30.023Z,0.62
2024-01-10T04:19:46.493Z,0.47
2024-01-10T04:21:02.515Z,0.45
2024-01-10T04:22:18.317Z,0.51
2024-01-10T04:23:34.322Z,0.56
2024-01-10T04:24:50.368Z,0.34
2024-01-10T04:26:06.386Z,0.63
2024-01-10T04:27:22.418Z,0.29
2024-01-10T04:28:38.410Z,0.3
2024-01-10T04:29:54.377Z,0.53
2024-01-10T04:31:10.509Z,0.76
2024-01-10T04:32:26.618Z,0.72
2024-01-10T04:33:42.469Z,0.53
2024-01-10T04:34:58.425Z,0.32
2024-01-10T04:36:14.374Z,0.28
2024-01-10T04:37:30.366Z,0.34
2024-01-10T04:38:46.385Z,0.12
2024-01-10T04:40:02.444Z,0
2024-01-10T04:41:18.555Z,0.13
2024-01-10T04:42:34.427Z,0.09
2024-01-10T04:43:50.399Z,0.28
2024-01-10T04:45:06.412Z,0.51
2024-01-10T04:46:22.797Z,0.41
2024-01-10T04:47:39.774Z,0.47
2024-01-10T04:48:56.555Z,0.47
2024-01-10T04:50:14.021Z,0.63
2024-01-10T04:51:28.369Z,0.57
2024-01-10T04:52:44.454Z,0.76
2024-01-10T04:54:00.416Z,0.61
2024-01-10T04:55:16.408Z,0.31
2024-01-10T04:56:32.505Z,0.14
2024-01-10T04:57:48.514Z,0.15
2024-01-10T04:59:04.434Z,0.26
2024-01-10T05:00:20.415Z,0.4
2024-01-10T05:01:36.480Z,0.62
2024-01-10T05:02:54.648Z,0.42
2024-01-10T05:04:08.456Z,0.1
2024-01-10T05:05:24.442Z,0
2024-01-10T05:06:40.413Z,0
2024-01-10T05:07:56.454Z,0
2024-01-10T05:09:12.434Z,0
2024-01-10T05:10:28.393Z,0.31
2024-01-10T05:11:45.116Z,0.12
2024-01-10T05:13:00.439Z,0.33
2024-01-10T05:14:16.514Z,0.15
2024-01-10T05:15:32.467Z,0.07
2024-01-10T05:16:48.471Z,0.27
2024-01-10T05:18:04.472Z,0.23
2024-01-10T05:19:20.422Z,0.17
2024-01-10T05:20:36.488Z,0.17
2024-01-10T05:21:52.447Z,0.33
2024-01-10T05:23:08.458Z,0.21
2024-01-10T05:24:24.395Z,0.3
2024-01-10T05:25:40.608Z,0.45
2024-01-10T05:26:56.414Z,0.4
2024-01-10T05:28:12.445Z,0.41
2024-01-10T05:29:28.645Z,0.58
2024-01-10T05:30:44.494Z,0.37
2024-01-10T05:32:00.597Z,0.63
2024-01-10T05:33:16.483Z,0.43
2024-01-10T05:34:32.447Z,0.56
2024-01-10T05:35:48.536Z,0.61
2024-01-10T05:37:04.847Z,1.1
2024-01-10T05:38:21.503Z,0.62
2024-01-10T05:39:37.426Z,0.78
2024-01-10T05:40:53.985Z,0.72
2024-01-10T05:42:10.474Z,0.61
2024-01-10T05:43:27.307Z,0.34
2024-01-10T05:44:43.505Z,0.26
2024-01-10T05:45:59.497Z,0.34
2024-01-10T05:47:15.533Z,0.59
2024-01-10T05:48:31.554Z,0.68
2024-01-10T05:49:47.692Z,0.34
2024-01-10T05:51:04.726Z,0.45
2024-01-10T05:52:21.899Z,0.4
2024-01-10T05:53:38.602Z,0.6
2024-01-10T05:54:54.841Z,0.73
2024-01-10T05:56:12.694Z,0.73
2024-01-10T05:57:29.639Z,0.69
2024-01-10T05:58:47.061Z,0.73
2024-01-10T06:00:03.717Z,0.48
2024-01-10T06:01:20.549Z,0.46
2024-01-10T06:02:36.846Z,0.53
2024-01-10T06:03:53.567Z,0.73
2024-01-10T06:05:09.518Z,0.66
2024-01-10T06:06:25.572Z,0.47
2024-01-10T06:07:41.503Z,0.45
2024-01-10T06:08:57.502Z,0.39
2024-01-10T06:10:13.488Z,0.21
2024-01-10T06:11:29.497Z,0.42
2024-01-10T06:12:45.493Z,0.23
2024-01-10T06:14:01.593Z,0.34
2024-01-10T06:15:17.464Z,0
2024-01-10T06:16:33.504Z,0.26
2024-01-10T06:17:49.695Z,0.25
2024-01-10T06:19:05.702Z,0.21
2024-01-10T06:20:21.557Z,0.53
2024-01-10T06:21:37.480Z,0.27
2024-01-10T06:22:53.516Z,0.52
2024-01-10T06:24:09.569Z,0.46
2024-01-10T06:25:25.523Z,0.24
2024-01-10T06:26:41.429Z,0.38
2024-01-10T06:27:57.527Z,0.4
2024-01-10T06:29:14.372Z,0.42
2024-01-10T06:30:30.527Z,0.38
2024-01-10T06:31:46.578Z,0.45
2024-01-10T06:33:03.991Z,0.54
2024-01-10T06:34:21.090Z,0.51
2024-01-10T06:35:37.545Z,0.28
2024-01-10T06:36:53.538Z,0.36
2024-01-10T06:38:09.565Z,0.28
2024-01-10T06:39:25.525Z,0.55
2024-01-10T06:40:41.496Z,0.48
2024-01-10T06:41:57.493Z,0.43
2024-01-10T06:43:14.055Z,0.28
2024-01-10T06:44:31.160Z,0.4
2024-01-10T06:45:47.542Z,0.59
2024-01-10T06:47:03.569Z,0.33
2024-01-10T06:48:19.553Z,0.36
2024-01-10T06:49:35.668Z,0.39
2024-01-10T06:50:51.567Z,0.67
2024-01-10T06:52:07.496Z,0.63
2024-01-10T06:53:23.594Z,0.32
2024-01-10T06:54:39.577Z,0.36
2024-01-10T06:55:55.656Z,0.73
2024-01-10T06:57:11.574Z,0.8
2024-01-10T06:58:28.072Z,0.51
2024-01-10T06:59:45.187Z,0.6
2024-01-10T07:01:01.641Z,0.49
2024-01-10T07:02:17.534Z,0.78
2024-01-10T07:03:33.593Z,1.54
2024-01-10T07:04:49.658Z,1.02
2024-01-10T07:06:05.807Z,1.32
2024-01-10T07:07:21.542Z,0.55
2024-01-10T07:08:37.591Z,0.65
2024-01-10T07:09:53.729Z,1
2024-01-10T07:11:09.632Z,0.71
2024-01-10T07:12:25.538Z,0.64
2024-01-10T07:13:41.522Z,0.76
2024-01-10T07:14:57.645Z,0.46
2024-01-10T07:16:13.610Z,0.73
2024-01-10T07:17:29.743Z,1.54
2024-01-10T07:18:45.689Z,1.41
2024-01-10T07:20:01.715Z,1.37
2024-01-10T07:21:17.636Z,1.67
2024-01-10T07:22:33.576Z,1.6
2024-01-10T07:23:49.565Z,2.1
2024-01-10T07:25:06.636Z,1.16
2024-01-10T07:26:22.046Z,1.82
2024-01-10T07:27:38.596Z,1.24
2024-01-10T07:28:54.737Z,1.45
2024-01-10T07:30:10.675Z,1.27
2024-01-10T07:31:26.557Z,1.19
2024-01-10T07:32:42.773Z,1.31
2024-01-10T07:33:59.127Z,1.46
2024-01-10T07:35:15.775Z,0.81
2024-01-10T07:36:31.626Z,0.86
2024-01-10T07:37:47.674Z,0.57
2024-01-10T07:39:04.401Z,1.17
2024-01-10T07:40:19.552Z,0.76
2024-01-10T07:41:35.638Z,1.11
2024-01-10T07:42:51.616Z,1.11
2024-01-10T07:44:07.684Z,1.18
2024-01-10T07:45:23.630Z,1.03
2024-01-10T07:46:39.692Z,1.02
2024-01-10T07:47:55.668Z,0.66
2024-01-10T07:49:11.646Z,1.15
2024-01-10T07:50:27.684Z,0.83
2024-01-10T07:51:43.638Z,0.65
2024-01-10T07:52:59.626Z,0.43
2024-01-10T07:54:15.581Z,0.8
2024-01-10T07:55:31.592Z,0.71
2024-01-10T07:56:47.812Z,0.41
2024-01-10T07:58:03.741Z,0.55
2024-01-10T07:59:19.667Z,0.22
2024-01-10T08:00:35.645Z,0.65
2024-01-10T08:01:51.678Z,0.37
2024-01-10T08:03:07.699Z,0.5
2024-01-10T08:04:23.695Z,0.37
2024-01-10T08:05:39.642Z,0.94
2024-01-10T08:06:55.808Z,0.64
2024-01-10T08:08:11.655Z,0.49
2024-01-10T08:09:27.632Z,0.94
2024-01-10T08:10:43.649Z,0.93
2024-01-10T08:11:59.650Z,0.82
2024-01-10T08:13:15.624Z,0.24
2024-01-10T08:14:31.663Z,0.76
2024-01-10T08:15:47.660Z,0.7
2024-01-10T08:17:03.627Z,0.78
2024-01-10T08:18:19.735Z,0.87
2024-01-10T08:19:35.684Z,0.69
2024-01-10T08:20:51.645Z,0.44
2024-01-10T08:22:07.688Z,0.5
2024-01-10T08:23:23.765Z,0.7
2024-01-10T08:24:39.674Z,1.03
2024-01-10T08:25:55.699Z,0.84
2024-01-10T08:27:11.700Z,0.66
2024-01-10T08:28:28.084Z,0.55
2024-01-10T08:29:45.052Z,0.6
2024-01-10T08:31:03.950Z,1.11
2024-01-10T08:32:17.653Z,0.98
2024-01-10T08:33:33.842Z,0.59
2024-01-10T08:34:49.730Z,0.52
2024-01-10T08:36:05.655Z,0.69
2024-01-10T08:37:21.664Z,0.59
2024-01-10T08:38:37.698Z,0.65
2024-01-10T08:39:53.695Z,0.92
2024-01-10T08:41:09.645Z,1.08
2024-01-10T08:42:25.673Z,0.86
2024-01-10T08:43:41.698Z,0.94
2024-01-10T08:44:57.643Z,0.82
2024-01-10T08:46:13.762Z,0.98
2024-01-10T08:47:29.827Z,1.32
2024-01-10T08:48:45.873Z,1.28
2024-01-10T08:50:01.673Z,0.56
2024-01-10T08:51:17.700Z,1.04
2024-01-10T08:52:33.666Z,0.65
2024-01-10T08:53:49.646Z,1.09
2024-01-10T08:55:05.714Z,0.86
2024-01-10T08:56:21.748Z,0.8
2024-01-10T08:57:37.741Z,0.44
2024-01-10T08:58:53.752Z,1.08
2024-01-10T09:00:09.693Z,1.61
2024-01-10T09:01:25.804Z,0.6
2024-01-10T09:02:41.673Z,0.36
2024-01-10T09:03:57.683Z,0.81
2024-01-10T09:05:13.821Z,0.69
2024-01-10T09:06:29.821Z,1.01
2024-01-10T09:07:45.719Z,1.74
2024-01-10T09:09:01.725Z,1.09
2024-01-10T09:10:17.664Z,0.77
2024-01-10T09:11:35.802Z,1.27
2024-01-10T09:12:49.711Z,1.13
2024-01-10T09:14:05.858Z,0.6
2024-01-10T09:15:21.738Z,0.62
2024-01-10T09:16:37.737Z,0.52
2024-01-10T09:17:53.934Z,0.9
2024-01-10T09:19:11.474Z,1.15
2024-01-10T09:20:26.214Z,1.17
2024-01-10T09:21:42.681Z,0.61
2024-01-10T09:22:58.712Z,1.15
2024-01-10T09:24:21.504Z,0.89
2024-01-10T09:25:30.694Z,1.25
2024-01-10T09:26:46.741Z,1.33
2024-01-10T09:28:02.708Z,1.26
2024-01-10T09:29:18.768Z,0.55
2024-01-10T09:30:34.724Z,0.82
2024-01-10T09:31:50.788Z,1.13
2024-01-10T09:33:07.156Z,0.54
2024-01-10T09:34:23.928Z,0.72
2024-01-10T09:35:39.798Z,0.83
2024-01-10T09:36:55.792Z,0.33
2024-01-10T09:38:12.108Z,0.26
2024-01-10T09:39:28.676Z,0.41
2024-01-10T09:40:44.893Z,0.48
2024-01-10T09:42:00.761Z,0.42
2024-01-10T09:43:17.003Z,1.3
2024-01-10T09:44:33.749Z,1.21
2024-01-10T09:45:49.784Z,0.72
2024-01-10T09:47:05.811Z,0.53
2024-01-10T09:48:21.890Z,0.79
2024-01-10T09:49:38.100Z,0.73
2024-01-10T09:50:54.697Z,0.97
2024-01-10T09:52:10.725Z,0.88
2024-01-10T09:53:26.846Z,1.27
2024-01-10T09:54:42.788Z,0.81
2024-01-10T09:55:58.796Z,0.98
2024-01-10T09:57:14.737Z,1.11
2024-01-10T09:58:30.787Z,0.77
2024-01-10T09:59:46.759Z,0.72
2024-01-10T10:01:02.726Z,0.43
2024-01-10T10:02:18.775Z,0.37
2024-01-10T10:03:35.002Z,0.4
2024-01-10T10:04:56.041Z,0.2
2024-01-10T10:06:06.763Z,0.19
2024-01-10T10:07:22.884Z,0.4
2024-01-10T10:08:38.791Z,0.62
2024-01-10T10:09:54.718Z,0.52
2024-01-10T10:11:10.794Z,0.37
2024-01-10T10:12:26.826Z,0.09
2024-01-10T10:13:42.821Z,0.39
2024-01-10T10:14:58.764Z,0.55
2024-01-10T10:16:14.852Z,0.91
2024-01-10T10:17:30.929Z,0.89
2024-01-10T10:18:49.682Z,0.69
2024-01-10T10:20:02.865Z,0.46
2024-01-10T10:21:19.036Z,1.1
2024-01-10T10:22:34.856Z,0.81
2024-01-10T10:23:50.904Z,0.38
2024-01-10T10:25:06.829Z,0.65
2024-01-10T10:26:23.070Z,0.35
2024-01-10T10:27:38.794Z,0.16
2024-01-10T10:28:54.849Z,0.72
2024-01-10T10:30:10.814Z,0.51
2024-01-10T10:31:26.790Z,0.46
2024-01-10T10:32:42.895Z,0.58
2024-01-10T10:33:58.798Z,0.88
2024-01-10T10:35:21.270Z,0.39
2024-01-10T10:36:31.292Z,0.61
2024-01-10T10:37:47.870Z,0.21
2024-01-10T10:39:03.847Z,0.23
2024-01-10T10:40:19.799Z,0.29
2024-01-10T10:41:36.286Z,0.56
2024-01-10T10:42:52.842Z,0.56
2024-01-10T10:44:08.922Z,0.28
2024-01-10T10:45:24.861Z,0.56
2024-01-10T10:46:40.868Z,1.14
2024-01-10T10:47:56.976Z,1.32
2024-01-10T10:49:12.956Z,0.72
2024-01-10T10:50:28.815Z,1.08
2024-01-10T10:51:44.798Z,0.47
2024-01-10T10:53:00.828Z,0.71
2024-01-10T10:54:17.715Z,0.27
2024-01-10T10:55:33.823Z,0.61
2024-01-10T10:56:50.057Z,0.73
2024-01-10T10:58:10.894Z,0.33
2024-01-10T10:59:23.003Z,0.16
2024-01-10T11:00:38.888Z,0.45
2024-01-10T11:01:54.875Z,1.05
2024-01-10T11:03:10.889Z,0.77
2024-01-10T11:04:26.942Z,0.71
2024-01-10T11:05:43.092Z,0.84
2024-01-10T11:06:59.056Z,0.34
2024-01-10T11:08:15.197Z,0.18
2024-01-10T11:09:31.958Z,0.19
2024-01-10T11:10:47.827Z,0.87
2024-01-10T11:12:03.835Z,0.18
2024-01-10T11:13:19.925Z,0.35
2024-01-10T11:14:35.972Z,0.66
2024-01-10T11:15:51.840Z,0.17
2024-01-10T11:17:07.876Z,1.37
2024-01-10T11:18:23.954Z,1.15
2024-01-10T11:19:39.945Z,0.69
2024-01-10T11:20:55.846Z,0.92
2024-01-10T11:22:11.865Z,0.56
2024-01-10T11:23:27.870Z,0.43
2024-01-10T11:24:43.961Z,0.96
2024-01-10T11:25:59.909Z,0.99
2024-01-10T11:27:15.889Z,0.56
2024-01-10T11:28:31.883Z,0.91
2024-01-10T11:29:48.029Z,0.33
2024-01-10T11:31:04.663Z,0.8
2024-01-10T11:32:20.970Z,0.83
2024-01-10T11:33:39.541Z,0.31
2024-01-10T11:34:56.001Z,0.76
2024-01-10T11:36:12.287Z,1.01
2024-01-10T11:37:27.924Z,0.37
2024-01-10T11:38:43.926Z,0.3
2024-01-10T11:39:59.930Z,0.77
2024-01-10T11:41:15.883Z,0.46
2024-01-10T11:42:31.972Z,0.96
2024-01-10T11:43:47.892Z,0.78
2024-01-10T11:45:03.820Z,0.79
2024-01-10T11:46:21.795Z,1.13
2024-01-10T11:47:35.945Z,0.96
2024-01-10T11:48:51.978Z,0.79
2024-01-10T11:50:07.912Z,0.88
2024-01-10T11:51:23.920Z,0.91
2024-01-10T11:52:39.880Z,0.74
2024-01-10T11:53:55.883Z,0.82
2024-01-10T11:55:11.947Z,0.55
2024-01-10T11:56:33.451Z,0.57
2024-01-10T11:57:43.908Z,0.98
2024-01-10T11:58:59.897Z,0.96
2024-01-10T12:00:15.957Z,1.12
2024-01-10T12:01:31.894Z,0.72
2024-01-10T12:02:48.392Z,0.83
2024-01-10T12:04:11.084Z,1.06
2024-01-10T12:05:21.039Z,1.04
2024-01-10T12:06:37.185Z,0.67
2024-01-10T12:07:52.947Z,1.24
2024-01-10T12:09:08.891Z,1.11
2024-01-10T12:10:24.949Z,0.86
2024-01-10T12:11:40.891Z,0.76
2024-01-10T12:12:56.943Z,0.89
2024-01-10T12:14:12.963Z,1.2
2024-01-10T12:15:28.915Z,0.76
2024-01-10T12:16:44.997Z,1.25
2024-01-10T12:18:00.999Z,1.38
2024-01-10T12:19:17.149Z,1.12
2024-01-10T12:20:33.209Z,1.22
2024-01-10T12:21:49.937Z,1.27
2024-01-10T12:23:05.991Z,1.36
2024-01-10T12:24:21.949Z,0.58
2024-01-10T12:25:37.920Z,0.89
2024-01-10T12:26:55.006Z,0.91
2024-01-10T12:28:10.960Z,0.76
2024-01-10T12:29:26.974Z,0.95
2024-01-10T12:30:42.956Z,0.99
2024-01-10T12:31:58.951Z,0.53
2024-01-10T12:33:14.957Z,0.99
2024-01-10T12:34:30.948Z,0.68
2024-01-10T12:35:47.148Z,1.1
2024-01-10T12:37:03.997Z,1.03
2024-01-10T12:38:19.966Z,0.89
2024-01-10T12:39:35.971Z,0.65
2024-01-10T12:40:52.044Z,0.79
2024-01-10T12:42:07.954Z,1.18
2024-01-10T12:43:24.138Z,1.29
2024-01-10T12:44:39.951Z,1.36
2024-01-10T12:45:56.000Z,0.88
2024-01-10T12:47:12.046Z,0.79
2024-01-10T12:48:28.025Z,0.69
2024-01-10T12:49:43.928Z,0.72
2024-01-10T12:51:00.014Z,0.41
2024-01-10T12:52:17.837Z,0.9
2024-01-10T12:53:31.973Z,1.1
2024-01-10T12:54:47.984Z,1.22
2024-01-10T12:56:04.100Z,0.63
2024-01-10T12:57:20.251Z,1.07
2024-01-10T12:58:36.001Z,0.94
2024-01-10T12:59:51.999Z,1.14
2024-01-10T13:01:07.991Z,0.9
2024-01-10T13:02:24.055Z,0.55
2024-01-10T13:03:40.006Z,0.83
2024-01-10T13:04:56.001Z,0.63
2024-01-10T13:06:12.080Z,0.56
2024-01-10T13:07:27.968Z,0.55
2024-01-10T13:08:44.095Z,0.71
2024-01-10T13:10:00.048Z,0.47
2024-01-10T13:11:16.048Z,0.12
2024-01-10T13:12:32.017Z,0
2024-01-10T13:13:48.026Z,0.52
2024-01-10T13:15:04.005Z,0.72
2024-01-10T13:16:19.962Z,0.61
2024-01-10T13:17:36.033Z,0.51
2024-01-10T13:18:52.312Z,0.85
2024-01-10T13:20:09.074Z,0.53
2024-01-10T13:21:24.963Z,0.55
2024-01-10T13:22:41.023Z,0.32
2024-01-10T13:23:57.016Z,0.43
2024-01-10T13:25:13.061Z,0.65
2024-01-10T13:26:29.280Z,1.04
2024-01-10T13:27:44.974Z,0.63
2024-01-10T13:29:01.118Z,0.44
2024-01-10T13:30:17.070Z,0.6
2024-01-10T13:31:33.050Z,0.95
2024-01-10T13:32:49.062Z,1.21
2024-01-10T13:34:05.143Z,0.95
2024-01-10T13:35:21.131Z,0.59
2024-01-10T13:36:36.970Z,0.84
2024-01-10T13:37:53.024Z,0.7
2024-01-10T13:39:09.085Z,0.9
2024-01-10T13:40:25.023Z,0.42
2024-01-10T13:41:41.043Z,0.11
2024-01-10T13:42:56.994Z,0.14
2024-01-10T13:44:13.086Z,0.13
2024-01-10T13:45:44.310Z,0.18
2024-01-10T13:47:00.060Z,0.51
2024-01-10T13:48:16.056Z,0.58
2024-01-10T13:49:32.132Z,0.82
2024-01-10T13:50:48.035Z,0.66
2024-01-10T13:52:04.054Z,0.71
2024-01-10T13:53:20.375Z,0.58
2024-01-10T13:54:37.021Z,0.57
2024-01-10T13:55:53.100Z,0.21
2024-01-10T13:57:09.256Z,0.53
2024-01-10T13:58:25.134Z,0.6
2024-01-10T13:59:41.042Z,0.67
2024-01-10T14:00:57.153Z,0.64
2024-01-10T14:02:13.158Z,0.87
2024-01-10T14:03:32.053Z,0.78
2024-01-10T14:04:45.111Z,0.49
2024-01-10T14:06:01.172Z,0.48
2024-01-10T14:07:17.170Z,0.2
2024-01-10T14:08:33.038Z,0.68
2024-01-10T14:09:49.511Z,1.05
2024-01-10T14:11:06.077Z,0.76
2024-01-10T14:12:22.185Z,0.71
2024-01-10T14:13:38.134Z,0.5
2024-01-10T14:14:54.129Z,0.46
2024-01-10T14:16:10.141Z,1.06
2024-01-10T14:17:26.133Z,0.66
2024-01-10T14:18:42.112Z,0.89
2024-01-10T14:19:58.094Z,0.86
2024-01-10T14:21:14.118Z,0.73
2024-01-10T14:22:31.558Z,0.65
2024-01-10T14:23:46.175Z,0.69
2024-01-10T14:25:02.613Z,0.44
2024-01-10T14:26:18.186Z,0.66
2024-01-10T14:27:34.100Z,0.73
2024-01-10T14:28:50.128Z,0.63
2024-01-10T14:30:06.250Z,0.45
2024-01-10T14:31:29.163Z,0.28
2024-01-10T14:32:39.576Z,0.18
2024-01-10T14:33:55.241Z,0.56
2024-01-10T14:35:11.516Z,0.47
2024-01-10T14:36:27.253Z,0.44
2024-01-10T14:37:43.114Z,0.43
2024-01-10T14:38:59.129Z,0.38
2024-01-10T14:40:15.123Z,0.42
2024-01-10T14:41:31.078Z,0.46
2024-01-10T14:42:47.121Z,0.45
2024-01-10T14:44:03.140Z,0.42
2024-01-10T14:45:19.084Z,0.4
2024-01-10T14:46:35.066Z,0.23
2024-01-10T14:47:51.381Z,0.31
2024-01-10T14:49:07.347Z,0.25
2024-01-10T14:50:23.109Z,0.34
2024-01-10T14:51:39.084Z,0.38
2024-01-10T14:52:55.328Z,0.23
2024-01-10T14:54:11.200Z,0.31
2024-01-10T14:55:27.133Z,0.22
2024-01-10T14:56:43.822Z,0.16
2024-01-10T14:57:59.170Z,0.32
2024-01-10T14:59:15.257Z,0.3
2024-01-10T15:00:31.252Z,0.23
2024-01-10T15:01:47.209Z,0.19
2024-01-10T15:03:06.611Z,0.13
2024-01-10T15:04:19.285Z,0
2024-01-10T15:05:35.652Z,0
2024-01-10T15:06:52.275Z,0
2024-01-10T15:08:08.159Z,0
2024-01-10T15:09:24.214Z,0.36
2024-01-10T15:10:40.120Z,0.39
2024-01-10T15:11:56.118Z,0.37
2024-01-10T15:13:12.145Z,0.28
2024-01-10T15:14:28.301Z,0
2024-01-10T15:15:44.099Z,0
2024-01-10T15:17:00.228Z,0
2024-01-10T15:18:16.290Z,0
2024-01-10T15:19:32.227Z,0
2024-01-10T15:20:48.112Z,0
2024-01-10T15:22:04.187Z,0
2024-01-10T15:23:20.285Z,0
2024-01-10T15:24:36.159Z,0
2024-01-10T15:25:52.252Z,0
2024-01-10T15:27:08.213Z,0
2024-01-10T15:28:24.146Z,0
2024-01-10T15:29:40.412Z,0
2024-01-10T15:30:56.228Z,0
2024-01-10T15:32:12.262Z,0
2024-01-10T15:33:28.230Z,0
2024-01-10T15:34:44.326Z,0
2024-01-10T15:36:00.185Z,0
2024-01-10T15:37:16.162Z,0
2024-01-10T15:38:32.385Z,0
2024-01-10T15:39:48.389Z,0
2024-01-10T15:41:04.333Z,0
2024-01-10T15:42:20.255Z,0
2024-01-10T15:43:36.348Z,0
2024-01-10T15:44:52.217Z,0
2024-01-10T15:46:08.279Z,0
2024-01-10T15:47:24.229Z,0
2024-01-10T15:48:40.287Z,0
2024-01-10T15:49:56.212Z,0
2024-01-10T15:51:12.233Z,0
2024-01-10T15:52:28.237Z,0
2024-01-10T15:53:44.270Z,0
2024-01-10T15:55:00.282Z,0
2024-01-10T15:56:16.442Z,0
2024-01-10T15:57:32.289Z,0
2024-01-10T15:58:48.433Z,0
2024-01-10T16:00:04.224Z,0
2024-01-10T16:01:20.520Z,0
2024-01-10T16:02:36.236Z,0
2024-01-10T16:03:52.234Z,0
2024-01-10T16:05:08.320Z,0
2024-01-10T16:06:24.382Z,0
2024-01-10T16:07:40.281Z,0
2024-01-10T16:08:56.256Z,0
2024-01-10T16:10:12.197Z,0
2024-01-10T16:11:28.500Z,0
2024-01-10T16:12:44.189Z,0
2024-01-10T16:14:00.374Z,0
2024-01-10T16:15:16.277Z,0
2024-01-10T16:16:32.235Z,0
2024-01-10T16:17:48.282Z,0
2024-01-10T16:19:04.224Z,0
2024-01-10T16:20:20.300Z,0
2024-01-10T16:21:36.216Z,0
2024-01-10T16:22:52.399Z,0.37
2024-01-10T16:24:08.318Z,0.36
2024-01-10T16:25:24.218Z,0.39
2024-01-10T16:26:40.393Z,0.4
2024-01-10T16:27:56.211Z,0.43
2024-01-10T16:29:12.361Z,0.46
2024-01-10T16:30:28.290Z,0.35
2024-01-10T16:31:44.415Z,0.33
2024-01-10T16:33:00.386Z,0.12
2024-01-10T16:34:16.324Z,0
2024-01-10T16:35:32.377Z,0
2024-01-10T16:36:48.220Z,0
2024-01-10T16:38:04.284Z,0.31
2024-01-10T16:39:20.240Z,0.37
2024-01-10T16:40:36.273Z,0.35
2024-01-10T16:41:52.600Z,0.22
2024-01-10T16:43:09.234Z,0.11
2024-01-10T16:44:25.323Z,0
2024-01-10T16:45:41.733Z,0
2024-01-10T16:46:59.035Z,0
2024-01-10T16:48:16.848Z,0
2024-01-10T16:49:33.380Z,0.14
2024-01-10T16:50:49.337Z,0.32
2024-01-10T16:52:05.472Z,0.35
2024-01-10T16:53:22.887Z,0.48
2024-01-10T16:54:40.282Z,0.41
2024-01-10T16:55:58.927Z,0.26
2024-01-10T16:57:15.343Z,0.26
2024-01-10T16:58:31.385Z,0.15
2024-01-10T16:59:47.510Z,0.18
2024-01-10T17:01:04.476Z,0.18
2024-01-10T17:02:20.842Z,0.19
2024-01-10T17:03:41.641Z,0.28
2024-01-10T17:05:00.527Z,0.43
2024-01-10T17:06:16.336Z,0.3
2024-01-10T17:07:32.269Z,0.27
2024-01-10T17:08:48.296Z,0.1
2024-01-10T17:10:04.421Z,0
2024-01-10T17:11:20.384Z,0.29
2024-01-10T17:12:36.275Z,0.28